Terminal Aerodrome Forecast
Issued by NWS Lake Charles, LA

Home | Current Version | Previous Version | Text Only | Print | Product List | Glossary On
Versions: 1 2 3 4 5 6 7 8 9 10 11 12 13 14 15 16 17 18 19 20 21 22 23 24 25
465
FTUS44 KLCH 202334
TAFBPT
TAF
KBPT 202334Z 2100/2124 15005KT P6SM VCTS BKN025CB OVC050
      TEMPO 2100/2102 3SM TSRA BKN025CB
     FM210200 16005KT 4SM -TSRA OVC007CB
     FM210700 VRB04KT 1/2SM FG OVC003
     FM211600 21008KT P6SM OVC015=

USA.gov is the U.S. government's official web portal to all federal, state and local government web resources and services.